South Kearny, New Jersey
Current Conditions -  °F | °C
As of 10:51 AM on Tuesday 21 Oct 2014 (Local Time) from KEWR Reporting Station
Broken Clouds Broken Clouds  
Wind Chill: 62°   Ceiling: 6000
Heat Index: 62°   Visibility: 10mi
Dew Point: 48°   Wind: 5mph
Humidity: 60%   Direction: 40°NE
Pressure: 29.89"   Gusts: NA
Location:  40.7563°N, 74.1217°W
Report Text: KEWR 211451Z 04004KT 10SM BKN060 BKN090 BKN250 17/09 A2989 RMK AO2 SLP120 T01670089 58002
Loading
Personal Weather Stations






























Interactive Weather Map
Tropical Storm Tracking
New forecast layout! Learn more

10-Day Weather Forecast

Advertisements
Track Severe Weather on mobile